sensor_id;sensor_type;location;lat;lon;timestamp;P1;durP1;ratioP1;P2;durP2;ratioP2
21339;SDS011;10828;47.064;15.422;2023-04-06T00:00:57;9.27;;;3.57;;
21339;SDS011;10828;47.064;15.422;2023-04-06T00:03:29;10.23;;;3.53;;
21339;SDS011;10828;47.064;15.422;2023-04-06T00:05:58;8.77;;;3.83;;
21339;SDS011;10828;47.064;15.422;2023-04-06T00:08:26;11.30;;;3.73;;
21339;SDS011;10828;47.064;15.422;2023-04-06T00:10:53;8.73;;;3.60;;
21339;SDS011;10828;47.064;15.422;2023-04-06T00:13:20;10.27;;;4.17;;
21339;SDS011;10828;47.064;15.422;2023-04-06T00:15:47;8.83;;;3.20;;
21339;SDS011;10828;47.064;15.422;2023-04-06T00:18:13;7.80;;;3.57;;
21339;SDS011;10828;47.064;15.422;2023-04-06T00:20:39;10.00;;;3.80;;
21339;SDS011;10828;47.064;15.422;2023-04-06T00:23:05;8.77;;;3.77;;
21339;SDS011;10828;47.064;15.422;2023-04-06T00:25:32;6.80;;;3.07;;
21339;SDS011;10828;47.064;15.422;2023-04-06T00:27:58;16.73;;;3.73;;
21339;SDS011;10828;47.064;15.422;2023-04-06T00:30:24;11.70;;;4.00;;
21339;SDS011;10828;47.064;15.422;2023-04-06T00:32:52;12.90;;;3.97;;
21339;SDS011;10828;47.064;15.422;2023-04-06T00:35:18;9.33;;;3.63;;
21339;SDS011;10828;47.064;15.422;2023-04-06T00:37:46;9.37;;;3.10;;
21339;SDS011;10828;47.064;15.422;2023-04-06T00:40:14;7.80;;;3.43;;
21339;SDS011;10828;47.064;15.422;2023-04-06T00:42:40;7.83;;;3.47;;
21339;SDS011;10828;47.064;15.422;2023-04-06T00:45:14;7.30;;;3.50;;
21339;SDS011;10828;47.064;15.422;2023-04-06T00:47:41;11.50;;;3.83;;
21339;SDS011;10828;47.064;15.422;2023-04-06T00:50:07;10.10;;;3.50;;
21339;SDS011;10828;47.064;15.422;2023-04-06T00:52:34;11.23;;;3.77;;
21339;SDS011;10828;47.064;15.422;2023-04-06T00:55:02;11.43;;;3.93;;
21339;SDS011;10828;47.064;15.422;2023-04-06T00:57:35;19.77;;;3.53;;
21339;SDS011;10828;47.064;15.422;2023-04-06T01:00:01;8.50;;;3.27;;
21339;SDS011;10828;47.064;15.422;2023-04-06T01:02:28;7.40;;;3.33;;
21339;SDS011;10828;47.064;15.422;2023-04-06T01:04:53;9.20;;;3.37;;
21339;SDS011;10828;47.064;15.422;2023-04-06T01:07:25;8.40;;;2.93;;
21339;SDS011;10828;47.064;15.422;2023-04-06T01:09:53;10.63;;;3.90;;
21339;SDS011;10828;47.064;15.422;2023-04-06T01:12:19;7.27;;;3.33;;
21339;SDS011;10828;47.064;15.422;2023-04-06T01:14:46;7.83;;;3.30;;
21339;SDS011;10828;47.064;15.422;2023-04-06T01:17:12;13.57;;;3.30;;
21339;SDS011;10828;47.064;15.422;2023-04-06T01:19:41;9.87;;;3.43;;
21339;SDS011;10828;47.064;15.422;2023-04-06T01:22:15;9.07;;;2.87;;
21339;SDS011;10828;47.064;15.422;2023-04-06T01:24:48;6.90;;;3.10;;
21339;SDS011;10828;47.064;15.422;2023-04-06T01:27:13;10.00;;;3.20;;
21339;SDS011;10828;47.064;15.422;2023-04-06T01:29:40;10.03;;;3.60;;
21339;SDS011;10828;47.064;15.422;2023-04-06T01:32:06;10.67;;;3.60;;
21339;SDS011;10828;47.064;15.422;2023-04-06T01:34:34;9.77;;;3.20;;
21339;SDS011;10828;47.064;15.422;2023-04-06T01:37:00;7.50;;;3.33;;
21339;SDS011;10828;47.064;15.422;2023-04-06T01:39:33;10.67;;;3.97;;
21339;SDS011;10828;47.064;15.422;2023-04-06T01:41:58;11.17;;;3.97;;
21339;SDS011;10828;47.064;15.422;2023-04-06T01:44:37;8.67;;;3.50;;
21339;SDS011;10828;47.064;15.422;2023-04-06T01:47:03;9.77;;;3.23;;
21339;SDS011;10828;47.064;15.422;2023-04-06T01:49:28;12.47;;;4.30;;
21339;SDS011;10828;47.064;15.422;2023-04-06T01:51:55;7.67;;;3.43;;
21339;SDS011;10828;47.064;15.422;2023-04-06T01:54:28;8.73;;;3.27;;
21339;SDS011;10828;47.064;15.422;2023-04-06T01:56:57;14.10;;;4.10;;
21339;SDS011;10828;47.064;15.422;2023-04-06T01:59:25;15.00;;;4.70;;
21339;SDS011;10828;47.064;15.422;2023-04-06T02:01:51;14.13;;;4.20;;
21339;SDS011;10828;47.064;15.422;2023-04-06T02:04:17;8.47;;;3.57;;
21339;SDS011;10828;47.064;15.422;2023-04-06T02:06:44;7.53;;;3.33;;
21339;SDS011;10828;47.064;15.422;2023-04-06T02:09:11;7.27;;;3.43;;
21339;SDS011;10828;47.064;15.422;2023-04-06T02:11:38;12.73;;;3.40;;
21339;SDS011;10828;47.064;15.422;2023-04-06T02:14:04;8.77;;;3.40;;
21339;SDS011;10828;47.064;15.422;2023-04-06T02:16:31;13.53;;;3.40;;
21339;SDS011;10828;47.064;15.422;2023-04-06T02:18:57;5.23;;;2.63;;
21339;SDS011;10828;47.064;15.422;2023-04-06T02:21:22;7.03;;;3.27;;
21339;SDS011;10828;47.064;15.422;2023-04-06T02:23:49;5.93;;;2.87;;
21339;SDS011;10828;47.064;15.422;2023-04-06T02:26:15;11.10;;;3.47;;
21339;SDS011;10828;47.064;15.422;2023-04-06T02:28:41;6.97;;;3.10;;
21339;SDS011;10828;47.064;15.422;2023-04-06T02:31:07;8.40;;;3.43;;
21339;SDS011;10828;47.064;15.422;2023-04-06T02:33:34;6.47;;;2.93;;
21339;SDS011;10828;47.064;15.422;2023-04-06T02:36:00;8.80;;;3.00;;
21339;SDS011;10828;47.064;15.422;2023-04-06T02:40:58;7.80;;;3.77;;
21339;SDS011;10828;47.064;15.422;2023-04-06T02:43:24;7.97;;;3.30;;
21339;SDS011;10828;47.064;15.422;2023-04-06T02:45:50;10.27;;;3.30;;
21339;SDS011;10828;47.064;15.422;2023-04-06T02:48:17;9.13;;;3.70;;
21339;SDS011;10828;47.064;15.422;2023-04-06T02:50:43;6.80;;;3.33;;
21339;SDS011;10828;47.064;15.422;2023-04-06T02:53:10;8.40;;;3.70;;
21339;SDS011;10828;47.064;15.422;2023-04-06T02:55:36;14.83;;;3.13;;
21339;SDS011;10828;47.064;15.422;2023-04-06T02:58:05;10.47;;;3.47;;
21339;SDS011;10828;47.064;15.422;2023-04-06T03:00:30;5.33;;;3.00;;
21339;SDS011;10828;47.064;15.422;2023-04-06T03:02:56;10.33;;;3.93;;
21339;SDS011;10828;47.064;15.422;2023-04-06T03:05:22;7.73;;;3.60;;
21339;SDS011;10828;47.064;15.422;2023-04-06T03:07:47;11.50;;;3.30;;
21339;SDS011;10828;47.064;15.422;2023-04-06T03:10:13;13.97;;;3.87;;
21339;SDS011;10828;47.064;15.422;2023-04-06T03:12:42;8.50;;;3.33;;
21339;SDS011;10828;47.064;15.422;2023-04-06T03:15:08;8.67;;;3.33;;
21339;SDS011;10828;47.064;15.422;2023-04-06T03:17:36;11.67;;;3.83;;
21339;SDS011;10828;47.064;15.422;2023-04-06T03:20:02;8.77;;;3.83;;
21339;SDS011;10828;47.064;15.422;2023-04-06T03:22:28;13.33;;;3.50;;
21339;SDS011;10828;47.064;15.422;2023-04-06T03:24:54;6.43;;;3.37;;
21339;SDS011;10828;47.064;15.422;2023-04-06T03:27:20;10.07;;;3.73;;
21339;SDS011;10828;47.064;15.422;2023-04-06T03:29:45;8.70;;;3.43;;
21339;SDS011;10828;47.064;15.422;2023-04-06T03:32:13;9.33;;;3.43;;
21339;SDS011;10828;47.064;15.422;2023-04-06T03:34:39;11.10;;;3.50;;
21339;SDS011;10828;47.064;15.422;2023-04-06T03:37:07;10.13;;;3.50;;
21339;SDS011;10828;47.064;15.422;2023-04-06T03:39:33;9.80;;;3.13;;
21339;SDS011;10828;47.064;15.422;2023-04-06T03:44:32;22.37;;;4.50;;
21339;SDS011;10828;47.064;15.422;2023-04-06T03:46:59;14.47;;;4.03;;
21339;SDS011;10828;47.064;15.422;2023-04-06T03:49:25;13.17;;;4.43;;
21339;SDS011;10828;47.064;15.422;2023-04-06T03:51:52;14.20;;;4.10;;
21339;SDS011;10828;47.064;15.422;2023-04-06T03:54:20;9.97;;;3.20;;
21339;SDS011;10828;47.064;15.422;2023-04-06T03:56:46;15.27;;;4.40;;
21339;SDS011;10828;47.064;15.422;2023-04-06T03:59:12;8.70;;;3.67;;
21339;SDS011;10828;47.064;15.422;2023-04-06T04:01:37;10.17;;;3.57;;
21339;SDS011;10828;47.064;15.422;2023-04-06T04:04:04;11.03;;;4.03;;
21339;SDS011;10828;47.064;15.422;2023-04-06T04:09:07;10.80;;;4.60;;
21339;SDS011;10828;47.064;15.422;2023-04-06T04:11:32;14.50;;;4.07;;
21339;SDS011;10828;47.064;15.422;2023-04-06T04:13:58;10.40;;;3.80;;
21339;SDS011;10828;47.064;15.422;2023-04-06T04:16:26;21.13;;;4.60;;
21339;SDS011;10828;47.064;15.422;2023-04-06T04:18:52;10.33;;;4.27;;
21339;SDS011;10828;47.064;15.422;2023-04-06T04:21:20;6.77;;;3.37;;
21339;SDS011;10828;47.064;15.422;2023-04-06T04:23:46;19.23;;;4.63;;
21339;SDS011;10828;47.064;15.422;2023-04-06T04:26:12;12.67;;;4.47;;
21339;SDS011;10828;47.064;15.422;2023-04-06T04:28:38;7.70;;;3.37;;
21339;SDS011;10828;47.064;15.422;2023-04-06T04:31:10;17.90;;;4.50;;
21339;SDS011;10828;47.064;15.422;2023-04-06T04:33:38;10.57;;;3.77;;
21339;SDS011;10828;47.064;15.422;2023-04-06T04:36:04;9.60;;;4.17;;
21339;SDS011;10828;47.064;15.422;2023-04-06T04:38:34;19.83;;;4.43;;
21339;SDS011;10828;47.064;15.422;2023-04-06T04:41:00;8.13;;;3.40;;
21339;SDS011;10828;47.064;15.422;2023-04-06T04:43:26;11.10;;;3.73;;
21339;SDS011;10828;47.064;15.422;2023-04-06T04:45:52;17.93;;;4.57;;
21339;SDS011;10828;47.064;15.422;2023-04-06T04:48:24;14.37;;;5.43;;
21339;SDS011;10828;47.064;15.422;2023-04-06T04:50:50;23.57;;;4.57;;
21339;SDS011;10828;47.064;15.422;2023-04-06T04:53:16;11.87;;;3.80;;
21339;SDS011;10828;47.064;15.422;2023-04-06T04:55:44;13.73;;;4.20;;
21339;SDS011;10828;47.064;15.422;2023-04-06T04:58:16;8.63;;;3.80;;
21339;SDS011;10828;47.064;15.422;2023-04-06T05:00:44;9.27;;;4.00;;
21339;SDS011;10828;47.064;15.422;2023-04-06T05:03:20;17.50;;;4.33;;
21339;SDS011;10828;47.064;15.422;2023-04-06T05:05:54;15.10;;;4.13;;
21339;SDS011;10828;47.064;15.422;2023-04-06T05:08:20;12.97;;;4.43;;
21339;SDS011;10828;47.064;15.422;2023-04-06T05:10:45;11.03;;;3.57;;
21339;SDS011;10828;47.064;15.422;2023-04-06T05:13:13;12.43;;;4.53;;
21339;SDS011;10828;47.064;15.422;2023-04-06T05:15:45;15.33;;;4.80;;
21339;SDS011;10828;47.064;15.422;2023-04-06T05:18:11;12.47;;;4.73;;
21339;SDS011;10828;47.064;15.422;2023-04-06T05:20:38;27.00;;;4.33;;
21339;SDS011;10828;47.064;15.422;2023-04-06T05:23:04;21.67;;;5.07;;
21339;SDS011;10828;47.064;15.422;2023-04-06T05:25:30;13.37;;;5.00;;
21339;SDS011;10828;47.064;15.422;2023-04-06T05:27:58;11.20;;;4.37;;
21339;SDS011;10828;47.064;15.422;2023-04-06T05:30:25;10.63;;;3.70;;
21339;SDS011;10828;47.064;15.422;2023-04-06T05:33:00;14.37;;;4.63;;
21339;SDS011;10828;47.064;15.422;2023-04-06T05:35:27;12.50;;;3.93;;
21339;SDS011;10828;47.064;15.422;2023-04-06T05:37:53;16.17;;;4.30;;
21339;SDS011;10828;47.064;15.422;2023-04-06T05:40:20;13.13;;;4.37;;
21339;SDS011;10828;47.064;15.422;2023-04-06T05:42:46;15.27;;;4.93;;
21339;SDS011;10828;47.064;15.422;2023-04-06T05:45:12;22.17;;;4.10;;
21339;SDS011;10828;47.064;15.422;2023-04-06T05:47:41;13.37;;;4.70;;
21339;SDS011;10828;47.064;15.422;2023-04-06T05:50:10;18.57;;;4.90;;
21339;SDS011;10828;47.064;15.422;2023-04-06T05:52:36;7.80;;;3.40;;
21339;SDS011;10828;47.064;15.422;2023-04-06T05:55:02;11.87;;;4.27;;
21339;SDS011;10828;47.064;15.422;2023-04-06T05:57:42;17.33;;;5.03;;
21339;SDS011;10828;47.064;15.422;2023-04-06T06:00:08;18.30;;;4.53;;
21339;SDS011;10828;47.064;15.422;2023-04-06T06:02:41;11.70;;;4.20;;
21339;SDS011;10828;47.064;15.422;2023-04-06T06:05:07;11.50;;;4.20;;
21339;SDS011;10828;47.064;15.422;2023-04-06T06:07:34;12.27;;;4.97;;
21339;SDS011;10828;47.064;15.422;2023-04-06T06:10:02;15.27;;;5.27;;
21339;SDS011;10828;47.064;15.422;2023-04-06T06:12:28;18.17;;;5.83;;
21339;SDS011;10828;47.064;15.422;2023-04-06T06:15:01;18.67;;;5.83;;
21339;SDS011;10828;47.064;15.422;2023-04-06T06:17:28;11.13;;;4.20;;
21339;SDS011;10828;47.064;15.422;2023-04-06T06:19:56;14.20;;;4.70;;
21339;SDS011;10828;47.064;15.422;2023-04-06T06:22:27;15.40;;;5.27;;
21339;SDS011;10828;47.064;15.422;2023-04-06T06:24:54;24.77;;;5.07;;
21339;SDS011;10828;47.064;15.422;2023-04-06T06:27:21;15.20;;;5.17;;
21339;SDS011;10828;47.064;15.422;2023-04-06T06:29:47;23.40;;;4.80;;
21339;SDS011;10828;47.064;15.422;2023-04-06T06:32:13;12.13;;;4.93;;
21339;SDS011;10828;47.064;15.422;2023-04-06T06:34:39;20.60;;;5.87;;
21339;SDS011;10828;47.064;15.422;2023-04-06T06:37:06;18.53;;;5.17;;
21339;SDS011;10828;47.064;15.422;2023-04-06T06:39:32;13.37;;;4.40;;
21339;SDS011;10828;47.064;15.422;2023-04-06T06:44:29;9.80;;;4.40;;
21339;SDS011;10828;47.064;15.422;2023-04-06T06:47:00;11.77;;;4.23;;
21339;SDS011;10828;47.064;15.422;2023-04-06T06:49:25;15.57;;;5.10;;
21339;SDS011;10828;47.064;15.422;2023-04-06T06:51:51;17.73;;;5.27;;
21339;SDS011;10828;47.064;15.422;2023-04-06T06:54:17;18.13;;;5.87;;
21339;SDS011;10828;47.064;15.422;2023-04-06T06:56:43;16.23;;;5.63;;
21339;SDS011;10828;47.064;15.422;2023-04-06T06:59:20;26.77;;;6.47;;
21339;SDS011;10828;47.064;15.422;2023-04-06T07:01:46;17.90;;;5.27;;
21339;SDS011;10828;47.064;15.422;2023-04-06T07:04:11;14.30;;;5.70;;
21339;SDS011;10828;47.064;15.422;2023-04-06T07:06:37;19.67;;;5.93;;
21339;SDS011;10828;47.064;15.422;2023-04-06T07:09:04;21.30;;;5.97;;
21339;SDS011;10828;47.064;15.422;2023-04-06T07:11:30;18.77;;;6.20;;
21339;SDS011;10828;47.064;15.422;2023-04-06T07:14:02;16.57;;;5.17;;
21339;SDS011;10828;47.064;15.422;2023-04-06T07:16:28;16.63;;;6.13;;
21339;SDS011;10828;47.064;15.422;2023-04-06T07:18:53;17.63;;;5.70;;
21339;SDS011;10828;47.064;15.422;2023-04-06T07:21:19;14.27;;;5.23;;
21339;SDS011;10828;47.064;15.422;2023-04-06T07:23:45;17.03;;;5.87;;
21339;SDS011;10828;47.064;15.422;2023-04-06T07:26:13;18.87;;;5.80;;
21339;SDS011;10828;47.064;15.422;2023-04-06T07:28:38;14.40;;;6.07;;
21339;SDS011;10828;47.064;15.422;2023-04-06T07:31:04;15.70;;;6.17;;
21339;SDS011;10828;47.064;15.422;2023-04-06T07:33:31;15.63;;;6.60;;
21339;SDS011;10828;47.064;15.422;2023-04-06T07:35:58;13.43;;;5.60;;
21339;SDS011;10828;47.064;15.422;2023-04-06T07:38:25;17.47;;;6.63;;
21339;SDS011;10828;47.064;15.422;2023-04-06T07:40:56;14.93;;;5.87;;
21339;SDS011;10828;47.064;15.422;2023-04-06T07:43:23;19.50;;;6.70;;
21339;SDS011;10828;47.064;15.422;2023-04-06T07:45:50;22.33;;;6.60;;
21339;SDS011;10828;47.064;15.422;2023-04-06T07:48:17;15.50;;;5.27;;
21339;SDS011;10828;47.064;15.422;2023-04-06T07:50:44;22.57;;;7.03;;
21339;SDS011;10828;47.064;15.422;2023-04-06T07:53:09;17.67;;;5.63;;
21339;SDS011;10828;47.064;15.422;2023-04-06T07:55:36;11.20;;;5.17;;
21339;SDS011;10828;47.064;15.422;2023-04-06T07:58:02;16.23;;;6.17;;
21339;SDS011;10828;47.064;15.422;2023-04-06T08:00:28;11.07;;;5.10;;
21339;SDS011;10828;47.064;15.422;2023-04-06T08:02:55;17.77;;;4.90;;
21339;SDS011;10828;47.064;15.422;2023-04-06T08:05:21;11.90;;;4.40;;
21339;SDS011;10828;47.064;15.422;2023-04-06T08:07:49;16.23;;;5.07;;
21339;SDS011;10828;47.064;15.422;2023-04-06T08:10:16;14.87;;;4.97;;
21339;SDS011;10828;47.064;15.422;2023-04-06T08:12:48;12.33;;;4.90;;
21339;SDS011;10828;47.064;15.422;2023-04-06T08:15:14;16.50;;;5.67;;
21339;SDS011;10828;47.064;15.422;2023-04-06T08:17:40;16.50;;;5.07;;
21339;SDS011;10828;47.064;15.422;2023-04-06T08:20:07;16.43;;;5.00;;
21339;SDS011;10828;47.064;15.422;2023-04-06T08:22:33;13.17;;;4.67;;
21339;SDS011;10828;47.064;15.422;2023-04-06T08:24:59;17.97;;;5.30;;
21339;SDS011;10828;47.064;15.422;2023-04-06T08:27:26;10.43;;;4.13;;
21339;SDS011;10828;47.064;15.422;2023-04-06T08:29:52;8.50;;;4.33;;
21339;SDS011;10828;47.064;15.422;2023-04-06T08:32:18;8.90;;;4.10;;
21339;SDS011;10828;47.064;15.422;2023-04-06T08:34:44;11.57;;;3.63;;
21339;SDS011;10828;47.064;15.422;2023-04-06T08:37:18;8.33;;;2.80;;
21339;SDS011;10828;47.064;15.422;2023-04-06T08:39:45;5.13;;;2.70;;
21339;SDS011;10828;47.064;15.422;2023-04-06T08:42:22;8.23;;;2.63;;
21339;SDS011;10828;47.064;15.422;2023-04-06T08:44:54;6.93;;;2.90;;
21339;SDS011;10828;47.064;15.422;2023-04-06T08:47:20;8.67;;;2.97;;
21339;SDS011;10828;47.064;15.422;2023-04-06T08:49:48;5.73;;;2.90;;
21339;SDS011;10828;47.064;15.422;2023-04-06T08:52:23;10.17;;;3.00;;
21339;SDS011;10828;47.064;15.422;2023-04-06T08:54:52;6.73;;;2.50;;
21339;SDS011;10828;47.064;15.422;2023-04-06T08:57:20;6.67;;;3.10;;
21339;SDS011;10828;47.064;15.422;2023-04-06T08:59:46;6.07;;;2.67;;
21339;SDS011;10828;47.064;15.422;2023-04-06T09:02:19;6.17;;;2.53;;
21339;SDS011;10828;47.064;15.422;2023-04-06T09:04:52;8.10;;;2.83;;
21339;SDS011;10828;47.064;15.422;2023-04-06T09:07:22;5.07;;;2.37;;
21339;SDS011;10828;47.064;15.422;2023-04-06T09:09:50;9.47;;;3.03;;
21339;SDS011;10828;47.064;15.422;2023-04-06T09:12:32;6.03;;;2.57;;
21339;SDS011;10828;47.064;15.422;2023-04-06T09:14:59;10.40;;;2.60;;
21339;SDS011;10828;47.064;15.422;2023-04-06T09:17:26;12.70;;;3.70;;
21339;SDS011;10828;47.064;15.422;2023-04-06T09:20:02;5.47;;;2.30;;
21339;SDS011;10828;47.064;15.422;2023-04-06T09:22:38;8.97;;;2.87;;
21339;SDS011;10828;47.064;15.422;2023-04-06T09:25:05;12.33;;;2.63;;
21339;SDS011;10828;47.064;15.422;2023-04-06T09:27:37;10.77;;;3.00;;
21339;SDS011;10828;47.064;15.422;2023-04-06T09:30:09;6.43;;;2.70;;
21339;SDS011;10828;47.064;15.422;2023-04-06T09:32:46;7.33;;;3.30;;
21339;SDS011;10828;47.064;15.422;2023-04-06T09:35:13;7.43;;;3.00;;
21339;SDS011;10828;47.064;15.422;2023-04-06T09:37:39;9.07;;;3.27;;
21339;SDS011;10828;47.064;15.422;2023-04-06T09:40:05;5.57;;;2.60;;
21339;SDS011;10828;47.064;15.422;2023-04-06T09:42:32;5.80;;;2.87;;
21339;SDS011;10828;47.064;15.422;2023-04-06T09:45:00;6.47;;;2.50;;
21339;SDS011;10828;47.064;15.422;2023-04-06T09:47:35;7.80;;;2.83;;
21339;SDS011;10828;47.064;15.422;2023-04-06T09:50:02;6.30;;;2.40;;
21339;SDS011;10828;47.064;15.422;2023-04-06T09:52:33;4.83;;;2.50;;
21339;SDS011;10828;47.064;15.422;2023-04-06T09:55:04;7.20;;;2.53;;
21339;SDS011;10828;47.064;15.422;2023-04-06T10:00:21;7.83;;;2.60;;
21339;SDS011;10828;47.064;15.422;2023-04-06T10:08:13;7.43;;;2.83;;
21339;SDS011;10828;47.064;15.422;2023-04-06T10:10:42;5.97;;;2.30;;
21339;SDS011;10828;47.064;15.422;2023-04-06T10:13:15;11.43;;;2.63;;
21339;SDS011;10828;47.064;15.422;2023-04-06T10:15:49;6.77;;;2.60;;
21339;SDS011;10828;47.064;15.422;2023-04-06T10:18:17;10.77;;;2.40;;
21339;SDS011;10828;47.064;15.422;2023-04-06T10:23:38;5.63;;;2.27;;
21339;SDS011;10828;47.064;15.422;2023-04-06T10:26:19;4.70;;;2.23;;
21339;SDS011;10828;47.064;15.422;2023-04-06T10:28:48;8.70;;;2.50;;
21339;SDS011;10828;47.064;15.422;2023-04-06T10:31:23;3.77;;;2.00;;
21339;SDS011;10828;47.064;15.422;2023-04-06T10:34:00;4.40;;;2.17;;
21339;SDS011;10828;47.064;15.422;2023-04-06T10:36:27;10.60;;;2.57;;
21339;SDS011;10828;47.064;15.422;2023-04-06T10:38:58;5.27;;;2.73;;
21339;SDS011;10828;47.064;15.422;2023-04-06T10:41:35;13.03;;;2.30;;
21339;SDS011;10828;47.064;15.422;2023-04-06T10:44:08;4.30;;;2.03;;
21339;SDS011;10828;47.064;15.422;2023-04-06T10:46:51;7.03;;;2.00;;
21339;SDS011;10828;47.064;15.422;2023-04-06T10:49:24;6.80;;;2.20;;
21339;SDS011;10828;47.064;15.422;2023-04-06T10:51:53;4.43;;;2.00;;
21339;SDS011;10828;47.064;15.422;2023-04-06T10:54:26;6.07;;;2.20;;
21339;SDS011;10828;47.064;15.422;2023-04-06T10:56:58;4.07;;;1.93;;
21339;SDS011;10828;47.064;15.422;2023-04-06T10:59:28;6.50;;;2.30;;
21339;SDS011;10828;47.064;15.422;2023-04-06T11:01:55;5.30;;;2.03;;
21339;SDS011;10828;47.064;15.422;2023-04-06T11:04:20;6.47;;;2.00;;
21339;SDS011;10828;47.064;15.422;2023-04-06T11:06:47;4.57;;;1.83;;
21339;SDS011;10828;47.064;15.422;2023-04-06T11:09:26;3.47;;;1.63;;
21339;SDS011;10828;47.064;15.422;2023-04-06T11:11:55;7.57;;;1.97;;
21339;SDS011;10828;47.064;15.422;2023-04-06T11:14:22;3.70;;;1.73;;
21339;SDS011;10828;47.064;15.422;2023-04-06T11:16:50;9.83;;;2.17;;
21339;SDS011;10828;47.064;15.422;2023-04-06T11:19:16;4.97;;;2.17;;
21339;SDS011;10828;47.064;15.422;2023-04-06T11:21:45;4.00;;;1.60;;
21339;SDS011;10828;47.064;15.422;2023-04-06T11:24:13;3.23;;;1.70;;
21339;SDS011;10828;47.064;15.422;2023-04-06T11:26:49;4.73;;;1.63;;
21339;SDS011;10828;47.064;15.422;2023-04-06T11:29:23;4.43;;;1.50;;
21339;SDS011;10828;47.064;15.422;2023-04-06T11:32:03;4.47;;;1.50;;
21339;SDS011;10828;47.064;15.422;2023-04-06T11:34:36;4.63;;;1.90;;
21339;SDS011;10828;47.064;15.422;2023-04-06T11:37:10;3.77;;;1.63;;
21339;SDS011;10828;47.064;15.422;2023-04-06T11:39:40;3.27;;;1.33;;
21339;SDS011;10828;47.064;15.422;2023-04-06T11:42:29;3.57;;;1.50;;
21339;SDS011;10828;47.064;15.422;2023-04-06T11:45:04;7.43;;;1.90;;
21339;SDS011;10828;47.064;15.422;2023-04-06T11:47:33;3.60;;;1.87;;
21339;SDS011;10828;47.064;15.422;2023-04-06T11:50:11;3.87;;;1.70;;
21339;SDS011;10828;47.064;15.422;2023-04-06T11:52:38;15.27;;;1.90;;
21339;SDS011;10828;47.064;15.422;2023-04-06T11:55:13;5.00;;;1.67;;
21339;SDS011;10828;47.064;15.422;2023-04-06T11:57:43;11.63;;;1.50;;
21339;SDS011;10828;47.064;15.422;2023-04-06T12:00:20;3.27;;;1.43;;
21339;SDS011;10828;47.064;15.422;2023-04-06T12:02:48;6.83;;;1.43;;
21339;SDS011;10828;47.064;15.422;2023-04-06T12:05:17;5.63;;;1.30;;
21339;SDS011;10828;47.064;15.422;2023-04-06T12:07:43;9.30;;;1.83;;
21339;SDS011;10828;47.064;15.422;2023-04-06T12:10:16;7.07;;;1.60;;
21339;SDS011;10828;47.064;15.422;2023-04-06T12:12:48;5.43;;;1.60;;
21339;SDS011;10828;47.064;15.422;2023-04-06T12:15:15;6.70;;;1.67;;
21339;SDS011;10828;47.064;15.422;2023-04-06T12:17:43;2.20;;;1.10;;
21339;SDS011;10828;47.064;15.422;2023-04-06T12:20:12;3.43;;;1.30;;
21339;SDS011;10828;47.064;15.422;2023-04-06T12:22:42;4.83;;;1.60;;
21339;SDS011;10828;47.064;15.422;2023-04-06T12:25:07;2.57;;;1.10;;
21339;SDS011;10828;47.064;15.422;2023-04-06T12:27:33;4.33;;;1.33;;
21339;SDS011;10828;47.064;15.422;2023-04-06T12:30:00;3.33;;;1.30;;
21339;SDS011;10828;47.064;15.422;2023-04-06T12:32:27;3.17;;;1.30;;
21339;SDS011;10828;47.064;15.422;2023-04-06T12:34:53;5.57;;;1.30;;
21339;SDS011;10828;47.064;15.422;2023-04-06T12:37:21;3.77;;;1.40;;
21339;SDS011;10828;47.064;15.422;2023-04-06T12:39:49;7.00;;;1.27;;
21339;SDS011;10828;47.064;15.422;2023-04-06T12:42:16;3.73;;;1.40;;
21339;SDS011;10828;47.064;15.422;2023-04-06T12:44:42;5.63;;;1.10;;
21339;SDS011;10828;47.064;15.422;2023-04-06T12:47:08;7.10;;;2.10;;
21339;SDS011;10828;47.064;15.422;2023-04-06T12:49:36;3.07;;;1.30;;
21339;SDS011;10828;47.064;15.422;2023-04-06T12:52:02;5.37;;;1.33;;
21339;SDS011;10828;47.064;15.422;2023-04-06T12:54:29;3.67;;;1.27;;
21339;SDS011;10828;47.064;15.422;2023-04-06T12:56:55;8.17;;;1.70;;
21339;SDS011;10828;47.064;15.422;2023-04-06T12:59:22;3.60;;;1.30;;
21339;SDS011;10828;47.064;15.422;2023-04-06T13:01:49;4.40;;;1.40;;
21339;SDS011;10828;47.064;15.422;2023-04-06T13:04:16;3.93;;;1.87;;
21339;SDS011;10828;47.064;15.422;2023-04-06T13:06:41;5.87;;;1.20;;
21339;SDS011;10828;47.064;15.422;2023-04-06T13:09:07;2.57;;;1.00;;
21339;SDS011;10828;47.064;15.422;2023-04-06T13:11:36;4.17;;;1.47;;
21339;SDS011;10828;47.064;15.422;2023-04-06T13:14:02;2.93;;;1.40;;
21339;SDS011;10828;47.064;15.422;2023-04-06T13:16:33;9.40;;;1.70;;
21339;SDS011;10828;47.064;15.422;2023-04-06T13:18:59;6.07;;;1.27;;
21339;SDS011;10828;47.064;15.422;2023-04-06T13:21:26;3.93;;;1.10;;
21339;SDS011;10828;47.064;15.422;2023-04-06T13:23:52;3.07;;;1.37;;
21339;SDS011;10828;47.064;15.422;2023-04-06T13:26:19;4.17;;;1.47;;
21339;SDS011;10828;47.064;15.422;2023-04-06T13:28:46;3.83;;;1.10;;
21339;SDS011;10828;47.064;15.422;2023-04-06T13:31:12;3.60;;;1.20;;
21339;SDS011;10828;47.064;15.422;2023-04-06T13:33:40;3.03;;;1.30;;
21339;SDS011;10828;47.064;15.422;2023-04-06T13:36:07;2.60;;;1.10;;
21339;SDS011;10828;47.064;15.422;2023-04-06T13:38:33;3.23;;;1.07;;
21339;SDS011;10828;47.064;15.422;2023-04-06T13:40:59;5.93;;;1.60;;
21339;SDS011;10828;47.064;15.422;2023-04-06T13:43:27;4.10;;;1.20;;
21339;SDS011;10828;47.064;15.422;2023-04-06T13:45:55;4.60;;;1.33;;
21339;SDS011;10828;47.064;15.422;2023-04-06T13:48:25;3.37;;;1.30;;
21339;SDS011;10828;47.064;15.422;2023-04-06T13:50:52;2.97;;;1.27;;
21339;SDS011;10828;47.064;15.422;2023-04-06T13:53:24;3.70;;;1.20;;
21339;SDS011;10828;47.064;15.422;2023-04-06T13:55:53;4.10;;;1.63;;
21339;SDS011;10828;47.064;15.422;2023-04-06T13:58:22;3.27;;;1.10;;
21339;SDS011;10828;47.064;15.422;2023-04-06T14:00:49;3.00;;;1.17;;
21339;SDS011;10828;47.064;15.422;2023-04-06T14:03:18;5.17;;;1.30;;
21339;SDS011;10828;47.064;15.422;2023-04-06T14:05:44;3.33;;;1.17;;
21339;SDS011;10828;47.064;15.422;2023-04-06T14:08:10;3.20;;;1.10;;
21339;SDS011;10828;47.064;15.422;2023-04-06T14:10:39;4.53;;;1.27;;
21339;SDS011;10828;47.064;15.422;2023-04-06T14:13:08;3.73;;;1.00;;
21339;SDS011;10828;47.064;15.422;2023-04-06T14:15:34;3.00;;;1.23;;
21339;SDS011;10828;47.064;15.422;2023-04-06T14:18:02;4.37;;;1.37;;
21339;SDS011;10828;47.064;15.422;2023-04-06T14:20:28;2.50;;;1.23;;
21339;SDS011;10828;47.064;15.422;2023-04-06T14:23:02;3.07;;;1.20;;
21339;SDS011;10828;47.064;15.422;2023-04-06T14:25:30;4.73;;;1.20;;
21339;SDS011;10828;47.064;15.422;2023-04-06T14:28:00;3.37;;;1.10;;
21339;SDS011;10828;47.064;15.422;2023-04-06T14:30:29;3.33;;;1.00;;
21339;SDS011;10828;47.064;15.422;2023-04-06T14:32:59;3.63;;;0.90;;
21339;SDS011;10828;47.064;15.422;2023-04-06T14:35:26;2.70;;;1.20;;
21339;SDS011;10828;47.064;15.422;2023-04-06T14:37:53;3.90;;;1.40;;
21339;SDS011;10828;47.064;15.422;2023-04-06T14:40:20;5.73;;;0.90;;
21339;SDS011;10828;47.064;15.422;2023-04-06T14:42:51;3.67;;;1.03;;
21339;SDS011;10828;47.064;15.422;2023-04-06T14:45:21;3.43;;;1.47;;
21339;SDS011;10828;47.064;15.422;2023-04-06T14:47:48;4.73;;;1.20;;
21339;SDS011;10828;47.064;15.422;2023-04-06T14:50:15;2.63;;;1.07;;
21339;SDS011;10828;47.064;15.422;2023-04-06T14:52:48;3.10;;;1.10;;
21339;SDS011;10828;47.064;15.422;2023-04-06T14:55:20;7.40;;;1.83;;